sensor_id;sensor_type;location;lat;lon;timestamp;temperature;humidity
77056;SHT30;67471;44.918;8.614;2023-04-03T00:02:01;14.36;55.33
77056;SHT30;67471;44.918;8.614;2023-04-03T00:05:10;14.30;55.57
77056;SHT30;67471;44.918;8.614;2023-04-03T00:08:15;14.29;55.55
77056;SHT30;67471;44.918;8.614;2023-04-03T00:11:19;14.33;55.62
77056;SHT30;67471;44.918;8.614;2023-04-03T00:14:24;14.23;56.01
77056;SHT30;67471;44.918;8.614;2023-04-03T00:17:27;14.24;55.92
77056;SHT30;67471;44.918;8.614;2023-04-03T00:20:32;14.30;55.96
77056;SHT30;67471;44.918;8.614;2023-04-03T00:23:36;14.20;56.52
77056;SHT30;67471;44.918;8.614;2023-04-03T00:26:40;14.21;56.43
77056;SHT30;67471;44.918;8.614;2023-04-03T00:29:44;14.05;56.86
77056;SHT30;67471;44.918;8.614;2023-04-03T00:32:49;14.17;56.99
77056;SHT30;67471;44.918;8.614;2023-04-03T00:35:52;14.09;57.37
77056;SHT30;67471;44.918;8.614;2023-04-03T00:38:56;14.03;57.65
77056;SHT30;67471;44.918;8.614;2023-04-03T00:42:00;13.99;58.09
77056;SHT30;67471;44.918;8.614;2023-04-03T00:48:12;13.86;59.12
77056;SHT30;67471;44.918;8.614;2023-04-03T00:51:22;13.73;59.08
77056;SHT30;67471;44.918;8.614;2023-04-03T00:54:26;13.71;58.75
77056;SHT30;67471;44.918;8.614;2023-04-03T00:57:31;13.73;58.52
77056;SHT30;67471;44.918;8.614;2023-04-03T01:00:37;13.69;58.48
77056;SHT30;67471;44.918;8.614;2023-04-03T01:03:42;13.65;58.68
77056;SHT30;67471;44.918;8.614;2023-04-03T01:06:46;13.63;58.51
77056;SHT30;67471;44.918;8.614;2023-04-03T01:09:53;13.49;59.05
77056;SHT30;67471;44.918;8.614;2023-04-03T01:12:59;13.59;59.26
77056;SHT30;67471;44.918;8.614;2023-04-03T01:16:05;13.49;59.91
77056;SHT30;67471;44.918;8.614;2023-04-03T01:19:15;13.40;60.61
77056;SHT30;67471;44.918;8.614;2023-04-03T01:22:26;13.38;60.82
77056;SHT30;67471;44.918;8.614;2023-04-03T01:25:33;13.30;60.51
77056;SHT30;67471;44.918;8.614;2023-04-03T01:28:37;13.11;60.80
77056;SHT30;67471;44.918;8.614;2023-04-03T01:31:56;13.07;60.47
77056;SHT30;67471;44.918;8.614;2023-04-03T01:35:01;13.01;60.38
77056;SHT30;67471;44.918;8.614;2023-04-03T01:38:05;12.93;60.24
77056;SHT30;67471;44.918;8.614;2023-04-03T01:41:09;13.03;60.21
77056;SHT30;67471;44.918;8.614;2023-04-03T01:44:13;12.87;60.68
77056;SHT30;67471;44.918;8.614;2023-04-03T01:47:16;12.90;60.80
77056;SHT30;67471;44.918;8.614;2023-04-03T01:50:20;12.97;60.57
77056;SHT30;67471;44.918;8.614;2023-04-03T01:53:25;12.96;60.42
77056;SHT30;67471;44.918;8.614;2023-04-03T01:56:28;12.96;59.86
77056;SHT30;67471;44.918;8.614;2023-04-03T01:59:32;12.84;60.06
77056;SHT30;67471;44.918;8.614;2023-04-03T02:02:36;12.75;59.99
77056;SHT30;67471;44.918;8.614;2023-04-03T02:05:40;12.86;59.59
77056;SHT30;67471;44.918;8.614;2023-04-03T02:08:44;12.84;59.01
77056;SHT30;67471;44.918;8.614;2023-04-03T02:11:48;12.80;58.77
77056;SHT30;67471;44.918;8.614;2023-04-03T02:14:51;12.80;58.73
77056;SHT30;67471;44.918;8.614;2023-04-03T02:17:55;12.79;58.71
77056;SHT30;67471;44.918;8.614;2023-04-03T02:20:59;12.56;59.14
77056;SHT30;67471;44.918;8.614;2023-04-03T02:24:04;12.52;58.83
77056;SHT30;67471;44.918;8.614;2023-04-03T02:27:07;12.55;58.73
77056;SHT30;67471;44.918;8.614;2023-04-03T02:30:11;12.60;58.67
77056;SHT30;67471;44.918;8.614;2023-04-03T02:33:15;12.45;58.90
77056;SHT30;67471;44.918;8.614;2023-04-03T02:36:19;12.42;59.26
77056;SHT30;67471;44.918;8.614;2023-04-03T02:39:29;12.49;58.98
77056;SHT30;67471;44.918;8.614;2023-04-03T02:42:33;12.38;59.43
77056;SHT30;67471;44.918;8.614;2023-04-03T02:45:37;12.10;60.72
77056;SHT30;67471;44.918;8.614;2023-04-03T02:48:41;12.15;60.27
77056;SHT30;67471;44.918;8.614;2023-04-03T02:51:45;12.31;60.00
77056;SHT30;67471;44.918;8.614;2023-04-03T02:54:50;12.25;60.05
77056;SHT30;67471;44.918;8.614;2023-04-03T02:57:54;12.17;60.08
77056;SHT30;67471;44.918;8.614;2023-04-03T03:00:57;12.22;60.11
77056;SHT30;67471;44.918;8.614;2023-04-03T03:04:01;12.18;60.70
77056;SHT30;67471;44.918;8.614;2023-04-03T03:07:05;12.17;60.92
77056;SHT30;67471;44.918;8.614;2023-04-03T03:10:09;11.99;61.40
77056;SHT30;67471;44.918;8.614;2023-04-03T03:13:13;12.08;61.11
77056;SHT30;67471;44.918;8.614;2023-04-03T03:16:16;12.05;60.65
77056;SHT30;67471;44.918;8.614;2023-04-03T03:19:20;12.02;60.91
77056;SHT30;67471;44.918;8.614;2023-04-03T03:22:26;12.02;60.83
77056;SHT30;67471;44.918;8.614;2023-04-03T03:25:29;11.97;60.51
77056;SHT30;67471;44.918;8.614;2023-04-03T03:28:34;11.82;60.46
77056;SHT30;67471;44.918;8.614;2023-04-03T03:31:39;11.81;60.20
77056;SHT30;67471;44.918;8.614;2023-04-03T03:34:44;11.77;60.21
77056;SHT30;67471;44.918;8.614;2023-04-03T03:37:48;11.90;60.35
77056;SHT30;67471;44.918;8.614;2023-04-03T03:40:52;11.87;60.19
77056;SHT30;67471;44.918;8.614;2023-04-03T03:43:57;11.92;60.10
77056;SHT30;67471;44.918;8.614;2023-04-03T03:47:02;11.90;60.29
77056;SHT30;67471;44.918;8.614;2023-04-03T03:50:08;11.87;60.44
77056;SHT30;67471;44.918;8.614;2023-04-03T03:53:12;11.77;60.81
77056;SHT30;67471;44.918;8.614;2023-04-03T03:56:16;11.82;59.50
77056;SHT30;67471;44.918;8.614;2023-04-03T03:59:21;11.85;59.36
77056;SHT30;67471;44.918;8.614;2023-04-03T04:02:25;11.69;59.65
77056;SHT30;67471;44.918;8.614;2023-04-03T04:05:30;11.75;59.23
77056;SHT30;67471;44.918;8.614;2023-04-03T04:08:36;11.74;59.36
77056;SHT30;67471;44.918;8.614;2023-04-03T04:11:42;11.70;59.41
77056;SHT30;67471;44.918;8.614;2023-04-03T04:14:49;11.73;59.39
77056;SHT30;67471;44.918;8.614;2023-04-03T04:17:53;11.60;59.11
77056;SHT30;67471;44.918;8.614;2023-04-03T04:20:57;11.64;58.91
77056;SHT30;67471;44.918;8.614;2023-04-03T04:24:02;11.60;59.41
77056;SHT30;67471;44.918;8.614;2023-04-03T04:27:06;11.60;59.32
77056;SHT30;67471;44.918;8.614;2023-04-03T04:30:11;11.56;59.25
77056;SHT30;67471;44.918;8.614;2023-04-03T04:33:16;11.49;59.70
77056;SHT30;67471;44.918;8.614;2023-04-03T04:36:21;11.46;60.07
77056;SHT30;67471;44.918;8.614;2023-04-03T04:39:25;11.37;61.01
77056;SHT30;67471;44.918;8.614;2023-04-03T04:42:31;11.36;61.36
77056;SHT30;67471;44.918;8.614;2023-04-03T04:45:36;11.30;61.82
77056;SHT30;67471;44.918;8.614;2023-04-03T04:48:40;11.24;62.08
77056;SHT30;67471;44.918;8.614;2023-04-03T04:51:44;11.06;62.62
77056;SHT30;67471;44.918;8.614;2023-04-03T04:54:49;11.08;62.79
77056;SHT30;67471;44.918;8.614;2023-04-03T04:57:53;10.92;63.51
77056;SHT30;67471;44.918;8.614;2023-04-03T05:01:09;10.95;63.16
77056;SHT30;67471;44.918;8.614;2023-04-03T05:04:20;10.91;63.17
77056;SHT30;67471;44.918;8.614;2023-04-03T05:07:28;10.88;62.83
77056;SHT30;67471;44.918;8.614;2023-04-03T05:10:34;10.93;62.27
77056;SHT30;67471;44.918;8.614;2023-04-03T05:13:38;10.89;61.97
77056;SHT30;67471;44.918;8.614;2023-04-03T05:16:41;10.88;61.92
77056;SHT30;67471;44.918;8.614;2023-04-03T05:19:46;11.02;62.33
77056;SHT30;67471;44.918;8.614;2023-04-03T05:22:50;11.01;62.93
77056;SHT30;67471;44.918;8.614;2023-04-03T05:25:53;10.86;63.38
77056;SHT30;67471;44.918;8.614;2023-04-03T05:28:58;10.78;63.13
77056;SHT30;67471;44.918;8.614;2023-04-03T05:32:03;10.93;62.34
77056;SHT30;67471;44.918;8.614;2023-04-03T05:35:07;10.96;62.28
77056;SHT30;67471;44.918;8.614;2023-04-03T05:38:11;11.02;62.84
77056;SHT30;67471;44.918;8.614;2023-04-03T05:41:15;10.98;62.96
77056;SHT30;67471;44.918;8.614;2023-04-03T05:44:21;10.82;62.52
77056;SHT30;67471;44.918;8.614;2023-04-03T05:47:27;10.86;62.92
77056;SHT30;67471;44.918;8.614;2023-04-03T05:50:30;10.85;62.88
77056;SHT30;67471;44.918;8.614;2023-04-03T05:53:35;10.78;61.78
77056;SHT30;67471;44.918;8.614;2023-04-03T05:56:43;10.85;61.05
77056;SHT30;67471;44.918;8.614;2023-04-03T05:59:47;10.83;60.77
77056;SHT30;67471;44.918;8.614;2023-04-03T06:02:52;10.85;60.62
77056;SHT30;67471;44.918;8.614;2023-04-03T06:06:02;10.82;60.56
77056;SHT30;67471;44.918;8.614;2023-04-03T06:09:07;10.73;60.60
77056;SHT30;67471;44.918;8.614;2023-04-03T06:12:10;10.82;60.29
77056;SHT30;67471;44.918;8.614;2023-04-03T06:15:14;12.66;55.29
77056;SHT30;67471;44.918;8.614;2023-04-03T06:18:20;14.92;48.93
77056;SHT30;67471;44.918;8.614;2023-04-03T06:21:24;16.18;45.87
77056;SHT30;67471;44.918;8.614;2023-04-03T06:24:27;18.00;42.57
77056;SHT30;67471;44.918;8.614;2023-04-03T06:27:31;18.77;40.61
77056;SHT30;67471;44.918;8.614;2023-04-03T06:30:35;19.30;39.98
77056;SHT30;67471;44.918;8.614;2023-04-03T06:33:40;20.65;37.62
77056;SHT30;67471;44.918;8.614;2023-04-03T06:36:44;20.85;36.85
77056;SHT30;67471;44.918;8.614;2023-04-03T06:39:48;22.13;34.96
77056;SHT30;67471;44.918;8.614;2023-04-03T06:42:52;22.59;33.76
77056;SHT30;67471;44.918;8.614;2023-04-03T06:45:56;21.69;34.79
77056;SHT30;67471;44.918;8.614;2023-04-03T06:49:00;22.53;34.16
77056;SHT30;67471;44.918;8.614;2023-04-03T06:52:04;23.00;33.36
77056;SHT30;67471;44.918;8.614;2023-04-03T06:55:09;22.28;34.20
77056;SHT30;67471;44.918;8.614;2023-04-03T06:58:13;22.74;33.35
77056;SHT30;67471;44.918;8.614;2023-04-03T07:01:18;22.15;34.20
77056;SHT30;67471;44.918;8.614;2023-04-03T07:04:25;22.20;34.12
77056;SHT30;67471;44.918;8.614;2023-04-03T07:07:28;22.61;33.54
77056;SHT30;67471;44.918;8.614;2023-04-03T07:10:32;23.15;33.05
77056;SHT30;67471;44.918;8.614;2023-04-03T07:13:36;23.41;32.81
77056;SHT30;67471;44.918;8.614;2023-04-03T07:16:40;23.32;32.92
77056;SHT30;67471;44.918;8.614;2023-04-03T07:19:44;23.66;32.51
77056;SHT30;67471;44.918;8.614;2023-04-03T07:22:47;23.93;31.60
77056;SHT30;67471;44.918;8.614;2023-04-03T07:25:52;23.67;32.37
77056;SHT30;67471;44.918;8.614;2023-04-03T07:28:56;23.44;32.18
77056;SHT30;67471;44.918;8.614;2023-04-03T07:32:01;22.96;32.08
77056;SHT30;67471;44.918;8.614;2023-04-03T07:35:05;23.35;32.51
77056;SHT30;67471;44.918;8.614;2023-04-03T07:38:10;24.05;31.66
77056;SHT30;67471;44.918;8.614;2023-04-03T07:41:15;24.07;31.48
77056;SHT30;67471;44.918;8.614;2023-04-03T07:44:19;24.07;31.61
77056;SHT30;67471;44.918;8.614;2023-04-03T07:47:23;24.20;31.07
77056;SHT30;67471;44.918;8.614;2023-04-03T07:50:27;24.02;31.21
77056;SHT30;67471;44.918;8.614;2023-04-03T07:53:31;24.30;31.46
77056;SHT30;67471;44.918;8.614;2023-04-03T07:56:35;24.14;31.33
77056;SHT30;67471;44.918;8.614;2023-04-03T07:59:39;23.86;31.08
77056;SHT30;67471;44.918;8.614;2023-04-03T08:02:45;24.26;30.67
77056;SHT30;67471;44.918;8.614;2023-04-03T08:05:53;24.30;30.29
77056;SHT30;67471;44.918;8.614;2023-04-03T08:08:57;24.72;29.66
77056;SHT30;67471;44.918;8.614;2023-04-03T08:12:02;24.14;30.58
77056;SHT30;67471;44.918;8.614;2023-04-03T08:15:07;23.89;30.65
77056;SHT30;67471;44.918;8.614;2023-04-03T08:18:11;23.73;30.91
77056;SHT30;67471;44.918;8.614;2023-04-03T08:21:15;23.90;30.25
77056;SHT30;67471;44.918;8.614;2023-04-03T08:24:19;23.92;30.67
77056;SHT30;67471;44.918;8.614;2023-04-03T08:27:23;23.79;31.09
77056;SHT30;67471;44.918;8.614;2023-04-03T08:30:27;23.79;30.83
77056;SHT30;67471;44.918;8.614;2023-04-03T08:33:31;23.73;31.09
77056;SHT30;67471;44.918;8.614;2023-04-03T08:36:35;23.92;30.74
77056;SHT30;67471;44.918;8.614;2023-04-03T08:39:39;23.87;30.87
77056;SHT30;67471;44.918;8.614;2023-04-03T08:42:54;23.97;30.02
77056;SHT30;67471;44.918;8.614;2023-04-03T08:46:02;23.96;29.64
77056;SHT30;67471;44.918;8.614;2023-04-03T08:49:23;24.00;29.58
77056;SHT30;67471;44.918;8.614;2023-04-03T08:55:43;23.63;30.37
77056;SHT30;67471;44.918;8.614;2023-04-03T08:58:50;23.48;31.23
77056;SHT30;67471;44.918;8.614;2023-04-03T09:01:58;23.77;31.57
77056;SHT30;67471;44.918;8.614;2023-04-03T09:05:11;24.02;32.00
77056;SHT30;67471;44.918;8.614;2023-04-03T09:08:40;24.09;32.58
77056;SHT30;67471;44.918;8.614;2023-04-03T09:15:23;24.14;33.09
77056;SHT30;67471;44.918;8.614;2023-04-03T09:18:37;24.48;33.18
77056;SHT30;67471;44.918;8.614;2023-04-03T09:21:43;24.60;33.16
77056;SHT30;67471;44.918;8.614;2023-04-03T09:24:52;24.50;33.45
77056;SHT30;67471;44.918;8.614;2023-04-03T09:27:59;23.54;34.03
77056;SHT30;67471;44.918;8.614;2023-04-03T09:31:20;23.17;34.37
77056;SHT30;67471;44.918;8.614;2023-04-03T09:34:28;22.50;35.25
77056;SHT30;67471;44.918;8.614;2023-04-03T09:40:39;23.87;33.84
77056;SHT30;67471;44.918;8.614;2023-04-03T09:43:53;23.85;33.85
77056;SHT30;67471;44.918;8.614;2023-04-03T09:46:58;24.09;33.48
77056;SHT30;67471;44.918;8.614;2023-04-03T09:50:21;24.31;33.23
77056;SHT30;67471;44.918;8.614;2023-04-03T09:53:38;22.02;35.77
77056;SHT30;67471;44.918;8.614;2023-04-03T09:56:51;22.32;36.25
77056;SHT30;67471;44.918;8.614;2023-04-03T09:59:58;23.37;34.83
77056;SHT30;67471;44.918;8.614;2023-04-03T10:03:04;22.42;35.37
77056;SHT30;67471;44.918;8.614;2023-04-03T10:06:22;23.11;34.81
77056;SHT30;67471;44.918;8.614;2023-04-03T10:09:32;23.90;33.71
77056;SHT30;67471;44.918;8.614;2023-04-03T10:12:36;23.10;34.29
77056;SHT30;67471;44.918;8.614;2023-04-03T10:15:46;22.20;35.33
77056;SHT30;67471;44.918;8.614;2023-04-03T10:25:43;22.43;35.21
77056;SHT30;67471;44.918;8.614;2023-04-03T10:28:59;22.10;36.68
77056;SHT30;67471;44.918;8.614;2023-04-03T10:45:31;21.65;37.92
77056;SHT30;67471;44.918;8.614;2023-04-03T10:52:46;21.30;38.65
77056;SHT30;67471;44.918;8.614;2023-04-03T11:02:52;21.88;38.27
77056;SHT30;67471;44.918;8.614;2023-04-03T11:06:01;21.71;38.45
77056;SHT30;67471;44.918;8.614;2023-04-03T11:09:27;21.57;38.04
77056;SHT30;67471;44.918;8.614;2023-04-03T11:15:38;21.62;38.18
77056;SHT30;67471;44.918;8.614;2023-04-03T11:18:47;21.95;36.95
77056;SHT30;67471;44.918;8.614;2023-04-03T11:25:20;21.59;38.83
77056;SHT30;67471;44.918;8.614;2023-04-03T11:28:25;22.37;37.09
77056;SHT30;67471;44.918;8.614;2023-04-03T11:34:47;23.61;34.61
77056;SHT30;67471;44.918;8.614;2023-04-03T11:37:53;23.55;34.48
77056;SHT30;67471;44.918;8.614;2023-04-03T11:40:58;23.66;33.95
77056;SHT30;67471;44.918;8.614;2023-04-03T11:47:50;23.99;33.88
77056;SHT30;67471;44.918;8.614;2023-04-03T11:54:46;24.26;31.75
77056;SHT30;67471;44.918;8.614;2023-04-03T12:01:09;23.86;31.63
77056;SHT30;67471;44.918;8.614;2023-04-03T12:04:14;24.02;31.60
77056;SHT30;67471;44.918;8.614;2023-04-03T12:07:19;24.21;30.95
77056;SHT30;67471;44.918;8.614;2023-04-03T12:10:23;23.56;32.51
77056;SHT30;67471;44.918;8.614;2023-04-03T12:13:27;23.72;33.00
77056;SHT30;67471;44.918;8.614;2023-04-03T12:19:41;23.34;33.43
77056;SHT30;67471;44.918;8.614;2023-04-03T12:29:58;22.88;34.85
77056;SHT30;67471;44.918;8.614;2023-04-03T12:33:13;22.81;34.41
77056;SHT30;67471;44.918;8.614;2023-04-03T12:36:29;22.32;34.08
77056;SHT30;67471;44.918;8.614;2023-04-03T12:46:45;22.10;35.78
77056;SHT30;67471;44.918;8.614;2023-04-03T12:49:52;21.34;35.75
77056;SHT30;67471;44.918;8.614;2023-04-03T12:53:01;21.79;35.76
77056;SHT30;67471;44.918;8.614;2023-04-03T12:56:31;21.23;36.74
77056;SHT30;67471;44.918;8.614;2023-04-03T12:59:34;21.03;35.58
77056;SHT30;67471;44.918;8.614;2023-04-03T13:02:44;20.85;36.36
77056;SHT30;67471;44.918;8.614;2023-04-03T13:05:48;21.69;34.79
77056;SHT30;67471;44.918;8.614;2023-04-03T13:08:54;22.12;35.16
77056;SHT30;67471;44.918;8.614;2023-04-03T13:12:11;22.64;33.89
77056;SHT30;67471;44.918;8.614;2023-04-03T13:15:27;22.47;33.51
77056;SHT30;67471;44.918;8.614;2023-04-03T13:18:33;22.93;32.12
77056;SHT30;67471;44.918;8.614;2023-04-03T13:21:37;22.40;33.99
77056;SHT30;67471;44.918;8.614;2023-04-03T13:24:41;22.46;34.26
77056;SHT30;67471;44.918;8.614;2023-04-03T13:27:46;22.56;33.42
77056;SHT30;67471;44.918;8.614;2023-04-03T13:31:01;21.62;34.08
77056;SHT30;67471;44.918;8.614;2023-04-03T13:37:29;21.28;34.91
77056;SHT30;67471;44.918;8.614;2023-04-03T13:40:33;21.81;35.36
77056;SHT30;67471;44.918;8.614;2023-04-03T13:43:37;21.74;35.81
77056;SHT30;67471;44.918;8.614;2023-04-03T13:46:41;22.19;35.59
77056;SHT30;67471;44.918;8.614;2023-04-03T13:49:59;21.73;35.95
77056;SHT30;67471;44.918;8.614;2023-04-03T13:53:13;21.74;37.01
77056;SHT30;67471;44.918;8.614;2023-04-03T13:56:32;22.25;35.97
77056;SHT30;67471;44.918;8.614;2023-04-03T13:59:37;22.13;35.16
77056;SHT30;67471;44.918;8.614;2023-04-03T14:02:41;21.40;35.84
77056;SHT30;67471;44.918;8.614;2023-04-03T14:05:45;21.17;36.11
77056;SHT30;67471;44.918;8.614;2023-04-03T14:08:49;21.04;36.39
77056;SHT30;67471;44.918;8.614;2023-04-03T14:11:57;21.13;36.81
77056;SHT30;67471;44.918;8.614;2023-04-03T14:15:17;20.90;36.30
77056;SHT30;67471;44.918;8.614;2023-04-03T14:18:21;21.23;36.94
77056;SHT30;67471;44.918;8.614;2023-04-03T14:21:25;21.00;37.38
77056;SHT30;67471;44.918;8.614;2023-04-03T14:24:29;20.93;37.04
77056;SHT30;67471;44.918;8.614;2023-04-03T14:27:42;21.11;36.99
77056;SHT30;67471;44.918;8.614;2023-04-03T14:30:47;21.37;36.29
77056;SHT30;67471;44.918;8.614;2023-04-03T14:33:51;20.95;36.68
77056;SHT30;67471;44.918;8.614;2023-04-03T14:36:55;20.83;37.74
77056;SHT30;67471;44.918;8.614;2023-04-03T14:40:01;20.28;39.18
77056;SHT30;67471;44.918;8.614;2023-04-03T14:43:09;20.32;38.23
77056;SHT30;67471;44.918;8.614;2023-04-03T14:46:29;20.80;37.53
77056;SHT30;67471;44.918;8.614;2023-04-03T14:49:33;20.55;37.79
77056;SHT30;67471;44.918;8.614;2023-04-03T14:52:38;20.59;37.72
77056;SHT30;67471;44.918;8.614;2023-04-03T14:55:45;20.31;38.29
77056;SHT30;67471;44.918;8.614;2023-04-03T14:58:56;20.27;38.05
77056;SHT30;67471;44.918;8.614;2023-04-03T15:02:00;20.39;37.83
77056;SHT30;67471;44.918;8.614;2023-04-03T15:05:07;20.58;37.01
77056;SHT30;67471;44.918;8.614;2023-04-03T15:08:29;21.13;35.82
77056;SHT30;67471;44.918;8.614;2023-04-03T15:11:33;21.28;36.63
77056;SHT30;67471;44.918;8.614;2023-04-03T15:14:37;20.34;36.62
77056;SHT30;67471;44.918;8.614;2023-04-03T15:17:41;20.52;36.96
77056;SHT30;67471;44.918;8.614;2023-04-03T15:20:46;20.75;36.91
77056;SHT30;67471;44.918;8.614;2023-04-03T15:23:50;20.52;37.48
77056;SHT30;67471;44.918;8.614;2023-04-03T15:26:54;20.13;37.74
77056;SHT30;67471;44.918;8.614;2023-04-03T15:29:58;20.16;38.24
77056;SHT30;67471;44.918;8.614;2023-04-03T15:33:02;19.93;38.70
77056;SHT30;67471;44.918;8.614;2023-04-03T15:36:06;20.39;38.02
77056;SHT30;67471;44.918;8.614;2023-04-03T15:39:10;20.51;37.26
77056;SHT30;67471;44.918;8.614;2023-04-03T15:42:14;20.95;36.27
77056;SHT30;67471;44.918;8.614;2023-04-03T15:45:17;21.00;36.85
77056;SHT30;67471;44.918;8.614;2023-04-03T15:48:21;20.64;38.78
77056;SHT30;67471;44.918;8.614;2023-04-03T15:51:25;20.97;37.96
77056;SHT30;67471;44.918;8.614;2023-04-03T15:54:29;20.78;36.42
77056;SHT30;67471;44.918;8.614;2023-04-03T15:57:33;20.52;37.39
77056;SHT30;67471;44.918;8.614;2023-04-03T16:00:37;20.41;38.19
77056;SHT30;67471;44.918;8.614;2023-04-03T16:03:42;20.35;39.18
77056;SHT30;67471;44.918;8.614;2023-04-03T16:06:49;20.03;40.47
77056;SHT30;67471;44.918;8.614;2023-04-03T16:09:53;19.97;40.85
77056;SHT30;67471;44.918;8.614;2023-04-03T16:12:57;19.49;41.96
77056;SHT30;67471;44.918;8.614;2023-04-03T16:16:01;19.42;42.42
77056;SHT30;67471;44.918;8.614;2023-04-03T16:19:06;19.49;42.35
77056;SHT30;67471;44.918;8.614;2023-04-03T16:22:09;19.30;42.69
77056;SHT30;67471;44.918;8.614;2023-04-03T16:25:13;18.98;43.74
77056;SHT30;67471;44.918;8.614;2023-04-03T16:28:17;19.22;43.05
77056;SHT30;67471;44.918;8.614;2023-04-03T16:31:23;19.14;43.13
77056;SHT30;67471;44.918;8.614;2023-04-03T16:34:27;19.16;43.22
77056;SHT30;67471;44.918;8.614;2023-04-03T16:37:33;19.25;42.92
77056;SHT30;67471;44.918;8.614;2023-04-03T16:40:37;19.08;42.73
77056;SHT30;67471;44.918;8.614;2023-04-03T16:43:41;19.01;42.61
77056;SHT30;67471;44.918;8.614;2023-04-03T16:46:45;19.11;42.64
77056;SHT30;67471;44.918;8.614;2023-04-03T16:49:49;18.53;42.74
77056;SHT30;67471;44.918;8.614;2023-04-03T16:52:52;18.64;42.65
77056;SHT30;67471;44.918;8.614;2023-04-03T16:55:57;18.60;43.00
77056;SHT30;67471;44.918;8.614;2023-04-03T16:59:01;18.68;42.27
77056;SHT30;67471;44.918;8.614;2023-04-03T17:02:05;18.61;42.41
77056;SHT30;67471;44.918;8.614;2023-04-03T17:05:08;18.56;42.33
77056;SHT30;67471;44.918;8.614;2023-04-03T17:08:12;18.51;42.55
77056;SHT30;67471;44.918;8.614;2023-04-03T17:11:18;18.32;43.15
77056;SHT30;67471;44.918;8.614;2023-04-03T17:14:22;18.33;43.17
77056;SHT30;67471;44.918;8.614;2023-04-03T17:17:25;18.05;43.51
77056;SHT30;67471;44.918;8.614;2023-04-03T17:20:29;17.88;43.93
77056;SHT30;67471;44.918;8.614;2023-04-03T17:23:34;17.81;44.09
77056;SHT30;67471;44.918;8.614;2023-04-03T17:26:41;17.57;44.43
77056;SHT30;67471;44.918;8.614;2023-04-03T17:29:45;17.48;44.64
77056;SHT30;67471;44.918;8.614;2023-04-03T17:32:48;17.47;44.79
77056;SHT30;67471;44.918;8.614;2023-04-03T17:35:55;17.14;45.57
77056;SHT30;67471;44.918;8.614;2023-04-03T17:38:59;17.21;45.65
77056;SHT30;67471;44.918;8.614;2023-04-03T17:42:04;17.09;45.98
77056;SHT30;67471;44.918;8.614;2023-04-03T17:45:08;16.86;46.97
77056;SHT30;67471;44.918;8.614;2023-04-03T17:48:12;16.73;47.86
77056;SHT30;67471;44.918;8.614;2023-04-03T17:51:19;16.75;48.19
77056;SHT30;67471;44.918;8.614;2023-04-03T17:54:23;16.66;48.85
77056;SHT30;67471;44.918;8.614;2023-04-03T17:57:27;16.75;48.94
77056;SHT30;67471;44.918;8.614;2023-04-03T18:00:35;16.47;50.13
77056;SHT30;67471;44.918;8.614;2023-04-03T18:03:39;16.35;50.78
77056;SHT30;67471;44.918;8.614;2023-04-03T18:06:47;16.11;51.67
77056;SHT30;67471;44.918;8.614;2023-04-03T18:09:53;16.18;51.54
77056;SHT30;67471;44.918;8.614;2023-04-03T18:12:58;16.05;52.08
77056;SHT30;67471;44.918;8.614;2023-04-03T18:16:06;16.04;52.16
77056;SHT30;67471;44.918;8.614;2023-04-03T18:19:10;16.07;51.86
77056;SHT30;67471;44.918;8.614;2023-04-03T18:22:16;16.02;52.05
77056;SHT30;67471;44.918;8.614;2023-04-03T18:25:22;15.91;52.03
77056;SHT30;67471;44.918;8.614;2023-04-03T18:28:27;15.76;52.45
77056;SHT30;67471;44.918;8.614;2023-04-03T18:31:33;15.69;52.36
77056;SHT30;67471;44.918;8.614;2023-04-03T18:34:37;15.76;52.02
77056;SHT30;67471;44.918;8.614;2023-04-03T18:37:41;15.77;51.83
77056;SHT30;67471;44.918;8.614;2023-04-03T18:40:45;15.40;52.43
77056;SHT30;67471;44.918;8.614;2023-04-03T18:43:50;15.46;51.96
77056;SHT30;67471;44.918;8.614;2023-04-03T18:46:54;15.44;52.23
77056;SHT30;67471;44.918;8.614;2023-04-03T18:49:59;15.35;52.27
77056;SHT30;67471;44.918;8.614;2023-04-03T18:53:02;15.26;52.25
77056;SHT30;67471;44.918;8.614;2023-04-03T18:56:06;15.19;51.91
77056;SHT30;67471;44.918;8.614;2023-04-03T18:59:10;14.87;52.31
77056;SHT30;67471;44.918;8.614;2023-04-03T19:02:14;14.95;51.83
77056;SHT30;67471;44.918;8.614;2023-04-03T19:05:20;14.71;51.82
77056;SHT30;67471;44.918;8.614;2023-04-03T19:08:24;14.82;50.97
77056;SHT30;67471;44.918;8.614;2023-04-03T19:11:28;14.56;50.25
77056;SHT30;67471;44.918;8.614;2023-04-03T19:14:33;14.70;48.53
77056;SHT30;67471;44.918;8.614;2023-04-03T19:17:37;14.29;48.11
77056;SHT30;67471;44.918;8.614;2023-04-03T19:20:41;14.19;47.98
77056;SHT30;67471;44.918;8.614;2023-04-03T19:23:44;14.40;46.90
77056;SHT30;67471;44.918;8.614;2023-04-03T19:26:48;14.12;46.72
77056;SHT30;67471;44.918;8.614;2023-04-03T19:29:52;14.29;46.57
77056;SHT30;67471;44.918;8.614;2023-04-03T19:32:56;14.02;46.34
77056;SHT30;67471;44.918;8.614;2023-04-03T19:36:04;13.99;45.79
77056;SHT30;67471;44.918;8.614;2023-04-03T19:39:07;13.76;45.93
77056;SHT30;67471;44.918;8.614;2023-04-03T19:42:11;13.72;45.69
77056;SHT30;67471;44.918;8.614;2023-04-03T19:45:15;13.71;44.93
77056;SHT30;67471;44.918;8.614;2023-04-03T19:48:21;13.57;45.83
77056;SHT30;67471;44.918;8.614;2023-04-03T19:51:25;13.51;45.10
77056;SHT30;67471;44.918;8.614;2023-04-03T19:54:30;13.72;44.52
77056;SHT30;67471;44.918;8.614;2023-04-03T19:57:33;13.48;44.95
77056;SHT30;67471;44.918;8.614;2023-04-03T20:00:37;13.52;44.78
77056;SHT30;67471;44.918;8.614;2023-04-03T20:03:41;13.45;44.69
77056;SHT30;67471;44.918;8.614;2023-04-03T20:06:45;13.32;44.81
77056;SHT30;67471;44.918;8.614;2023-04-03T20:09:49;13.37;45.15
77056;SHT30;67471;44.918;8.614;2023-04-03T20:12:52;13.22;45.55
77056;SHT30;67471;44.918;8.614;2023-04-03T20:16:01;13.20;45.68
77056;SHT30;67471;44.918;8.614;2023-04-03T20:19:05;13.41;45.44
77056;SHT30;67471;44.918;8.614;2023-04-03T20:22:10;13.51;45.50
77056;SHT30;67471;44.918;8.614;2023-04-03T20:25:13;13.10;45.74
77056;SHT30;67471;44.918;8.614;2023-04-03T20:28:18;13.20;45.51
77056;SHT30;67471;44.918;8.614;2023-04-03T20:31:23;13.35;45.30
77056;SHT30;67471;44.918;8.614;2023-04-03T20:34:27;13.18;45.43
77056;SHT30;67471;44.918;8.614;2023-04-03T20:37:31;13.24;45.05
77056;SHT30;67471;44.918;8.614;2023-04-03T20:40:35;12.96;45.89
77056;SHT30;67471;44.918;8.614;2023-04-03T20:43:41;13.11;45.74
77056;SHT30;67471;44.918;8.614;2023-04-03T20:46:45;13.15;45.40
77056;SHT30;67471;44.918;8.614;2023-04-03T20:49:49;13.01;45.80
77056;SHT30;67471;44.918;8.614;2023-04-03T20:52:55;13.06;45.63
77056;SHT30;67471;44.918;8.614;2023-04-03T20:56:00;13.04;45.99
77056;SHT30;67471;44.918;8.614;2023-04-03T20:59:03;13.24;45.05